Time;durP1;ratioP1;P1;durP2;ratioP2;P2;SDS_P1;SDS_P2;PMS_P1;PMS_P2;Temp;Humidity;BMP_temperature;BMP_pressure;BME280_temperature;BME280_humidity;BME280_pressure;Samples;Min_cycle;Max_cycle;Signal;HPM_P1;HPM_P2
2022/04/12 00:00:13;;;;;;;9.43;3.13;;;6.60;99.90;;;;;;5054535;28;20528;-68
2022/04/12 00:02:40;;;;;;;5.30;3.30;;;6.50;99.90;;;;;;5054118;28;20072;-68
2022/04/12 00:05:10;;;;;;;5.75;3.22;;;6.50;99.90;;;;;;5053315;28;20084;-68
2022/04/12 00:07:39;;;;;;;7.32;3.15;;;6.50;99.90;;;;;;5051590;28;20132;-68
2022/04/12 00:10:06;;;;;;;6.60;3.10;;;6.50;99.90;;;;;;5053817;28;20132;-69
2022/04/12 00:12:34;;;;;;;5.18;3.35;;;6.40;99.90;;;;;;5053160;28;20511;-68
2022/04/12 00:15:00;;;;;;;5.70;3.80;;;6.40;99.90;;;;;;5053909;28;20107;-68
2022/04/12 00:20:13;;;;;;;6.30;3.30;;;6.40;99.90;;;;;;5054791;28;20037;-68
2022/04/12 00:22:41;;;;;;;7.88;3.80;;;6.40;99.90;;;;;;5053791;28;20135;-68
2022/04/12 00:25:09;;;;;;;7.13;3.90;;;6.40;99.90;;;;;;5054016;28;20136;-67
2022/04/12 00:27:36;;;;;;;8.95;3.58;;;6.30;99.90;;;;;;5053332;28;20063;-67
2022/04/12 00:30:04;;;;;;;7.10;3.50;;;6.40;99.90;;;;;;5053547;28;20109;-68
2022/04/12 00:32:31;;;;;;;9.43;3.72;;;6.30;99.90;;;;;;5053170;28;20063;-67
2022/04/12 00:34:58;;;;;;;9.40;3.80;;;6.30;99.90;;;;;;5054463;28;20049;-67
2022/04/12 00:37:24;;;;;;;5.68;3.33;;;6.30;99.90;;;;;;5054369;28;20473;-67
2022/04/12 00:39:52;;;;;;;7.97;3.40;;;6.30;99.90;;;;;;5054119;28;20085;-67
2022/04/12 00:42:19;;;;;;;8.07;3.78;;;6.30;99.90;;;;;;5053308;28;20088;-67
2022/04/12 00:44:46;;;;;;;5.70;3.03;;;6.20;99.90;;;;;;5053426;28;20488;-67
2022/04/12 00:47:13;;;;;;;5.40;3.40;;;6.20;99.90;;;;;;5052607;28;20136;-68
2022/04/12 00:49:40;;;;;;;8.27;3.65;;;6.20;99.90;;;;;;5054108;28;20088;-67
2022/04/12 00:52:08;;;;;;;5.97;3.63;;;6.20;99.90;;;;;;5052813;28;20131;-67
2022/04/12 00:54:36;;;;;;;7.13;3.70;;;6.20;99.90;;;;;;5052596;28;20136;-67
2022/04/12 00:57:06;;;;;;;7.68;3.50;;;6.20;99.90;;;;;;5054045;28;20473;-68
2022/04/12 00:59:33;;;;;;;4.97;3.47;;;6.20;99.90;;;;;;5054260;28;20048;-67
2022/04/12 01:02:02;;;;;;;6.63;3.63;;;6.20;99.90;;;;;;5053479;28;20084;-67
2022/04/12 01:04:29;;;;;;;7.45;4.10;;;6.20;99.90;;;;;;5053914;28;20084;-67
2022/04/12 01:06:55;;;;;;;8.25;3.65;;;6.10;99.90;;;;;;5053345;28;20084;-68
2022/04/12 01:09:25;;;;;;;8.25;4.00;;;6.10;99.90;;;;;;5054058;28;20084;-68
2022/04/12 01:11:53;;;;;;;5.82;3.95;;;6.10;99.90;;;;;;5054046;28;20489;-68
2022/04/12 01:14:21;;;;;;;8.88;4.15;;;6.10;99.90;;;;;;5052252;28;20136;-68
2022/04/12 01:16:48;;;;;;;8.95;4.38;;;6.10;99.90;;;;;;5052647;28;20161;-68
2022/04/12 01:19:15;;;;;;;7.43;3.80;;;6.00;99.90;;;;;;5052723;28;20505;-68
2022/04/12 01:21:50;;;;;;;7.13;3.70;;;6.00;99.90;;;;;;5051338;28;20045;-68
2022/04/12 01:24:19;;;;;;;7.15;4.50;;;6.00;99.90;;;;;;5053698;28;20477;-68
2022/04/12 01:26:46;;;;;;;8.98;4.65;;;6.00;99.90;;;;;;5053445;28;20099;-67
2022/04/12 01:29:13;;;;;;;7.60;4.47;;;6.00;99.90;;;;;;5052953;28;20132;-68
2022/04/12 01:31:39;;;;;;;5.78;3.97;;;5.90;99.90;;;;;;5053551;28;20544;-68
2022/04/12 01:34:06;;;;;;;8.50;4.53;;;5.90;99.90;;;;;;5052144;28;20088;-68
2022/04/12 01:36:33;;;;;;;7.00;4.40;;;5.90;99.90;;;;;;5052599;28;20533;-69
2022/04/12 01:39:01;;;;;;;10.82;5.10;;;5.90;99.90;;;;;;5053416;28;20497;-68
2022/04/12 01:41:30;;;;;;;6.25;4.10;;;5.90;99.90;;;;;;5052236;28;20186;-68
2022/04/12 01:43:56;;;;;;;8.40;4.82;;;5.90;99.90;;;;;;5051453;28;20049;-68
2022/04/12 01:46:23;;;;;;;6.65;4.22;;;5.80;99.90;;;;;;5052099;28;20081;-69
2022/04/12 01:48:50;;;;;;;7.40;4.32;;;5.80;99.90;;;;;;5051990;28;20088;-68
2022/04/12 01:51:17;;;;;;;10.40;4.53;;;5.80;99.90;;;;;;5051422;28;20081;-68
2022/04/12 01:53:44;;;;;;;7.72;4.63;;;5.80;99.90;;;;;;5053316;28;20132;-68
2022/04/12 01:56:11;;;;;;;10.80;5.00;;;5.80;99.90;;;;;;5051089;28;20136;-68
2022/04/12 01:58:42;;;;;;;11.27;4.65;;;5.90;99.90;;;;;;5052974;28;20083;-69
2022/04/12 02:01:09;;;;;;;10.20;5.03;;;5.80;99.90;;;;;;5053224;28;20092;-68
2022/04/12 02:03:36;;;;;;;7.80;5.05;;;5.80;99.90;;;;;;5052300;28;20084;-68
2022/04/12 02:06:02;;;;;;;9.40;5.13;;;5.90;99.90;;;;;;5051758;28;20102;-68
2022/04/12 02:08:29;;;;;;;8.48;4.85;;;5.80;99.90;;;;;;5051802;28;20532;-68
2022/04/12 02:10:56;;;;;;;6.93;4.68;;;5.80;99.90;;;;;;5052298;28;20085;-68
2022/04/12 02:13:23;;;;;;;10.15;5.20;;;5.80;99.90;;;;;;5052946;28;20124;-68
2022/04/12 02:15:51;;;;;;;9.48;5.40;;;5.80;99.90;;;;;;5051844;28;20088;-67
2022/04/12 02:18:18;;;;;;;12.38;5.30;;;5.70;99.90;;;;;;5052081;28;20088;-68
2022/04/12 02:20:45;;;;;;;8.00;4.90;;;5.70;99.90;;;;;;5052622;28;20067;-67
2022/04/12 02:23:12;;;;;;;8.63;5.18;;;5.70;99.90;;;;;;5051921;28;20098;-68
2022/04/12 02:25:39;;;;;;;7.97;5.32;;;5.70;99.90;;;;;;5050599;28;20077;-67
2022/04/12 02:28:06;;;;;;;9.60;5.72;;;5.70;99.90;;;;;;5052703;28;20076;-68
2022/04/12 02:30:33;;;;;;;12.20;6.10;;;5.70;99.90;;;;;;5052868;28;20080;-67
2022/04/12 02:33:01;;;;;;;7.70;4.93;;;5.70;99.90;;;;;;5052212;28;20076;-67
2022/04/12 02:35:28;;;;;;;10.32;5.20;;;5.70;99.90;;;;;;5051287;28;20084;-67
2022/04/12 02:37:55;;;;;;;13.48;5.82;;;5.70;99.90;;;;;;5052463;28;20080;-67
2022/04/12 02:40:21;;;;;;;8.77;5.40;;;5.70;99.90;;;;;;5050653;28;20136;-67
2022/04/12 02:42:48;;;;;;;9.00;5.97;;;5.60;99.90;;;;;;5052506;28;20088;-68
2022/04/12 02:45:15;;;;;;;8.80;5.70;;;5.60;99.90;;;;;;5052725;28;20134;-68
2022/04/12 02:47:42;;;;;;;8.90;5.20;;;5.60;99.90;;;;;;5052047;28;20106;-67
2022/04/12 02:50:10;;;;;;;10.00;5.55;;;5.60;99.90;;;;;;5051438;28;20132;-68
2022/04/12 02:52:37;;;;;;;10.27;6.47;;;5.60;99.90;;;;;;5051911;28;20467;-68
2022/04/12 02:55:05;;;;;;;9.35;5.72;;;5.60;99.90;;;;;;5051396;28;20076;-68
2022/04/12 02:57:32;;;;;;;10.18;5.93;;;5.60;99.90;;;;;;5051120;28;20127;-67
2022/04/12 02:59:59;;;;;;;9.13;5.88;;;5.60;99.90;;;;;;5051741;28;20084;-68
2022/04/12 03:02:25;;;;;;;8.43;5.50;;;5.50;99.90;;;;;;5051356;28;20057;-68
2022/04/12 03:04:52;;;;;;;12.77;6.25;;;5.50;99.90;;;;;;5051240;28;20536;-69
2022/04/12 03:07:20;;;;;;;10.75;6.40;;;5.50;99.90;;;;;;5051326;28;20080;-68
2022/04/12 03:09:47;;;;;;;11.15;5.60;;;5.50;99.90;;;;;;5055295;28;20089;-67
2022/04/12 03:12:14;;;;;;;10.50;6.10;;;5.50;99.90;;;;;;5056063;28;20091;-67
2022/04/12 03:14:41;;;;;;;9.80;6.50;;;5.50;99.90;;;;;;5054555;28;20102;-67
2022/04/12 03:17:08;;;;;;;9.70;6.75;;;5.50;99.90;;;;;;5054795;28;20088;-67
2022/04/12 03:19:35;;;;;;;12.57;6.30;;;5.50;99.90;;;;;;5055063;28;20045;-67
2022/04/12 03:22:02;;;;;;;10.10;6.43;;;5.50;99.90;;;;;;5055310;28;20081;-67
2022/04/12 03:24:31;;;;;;;10.50;7.10;;;5.50;99.90;;;;;;5054365;28;20051;-67
2022/04/12 03:26:58;;;;;;;12.10;6.72;;;5.50;99.90;;;;;;5055245;28;20063;-67
2022/04/12 03:29:25;;;;;;;14.82;7.47;;;5.40;99.90;;;;;;5055199;28;20049;-67
2022/04/12 03:31:52;;;;;;;11.73;7.78;;;5.50;99.90;;;;;;5054881;28;20247;-67
2022/04/12 03:34:19;;;;;;;12.77;7.63;;;5.50;99.90;;;;;;5054928;28;20088;-67
2022/04/12 03:36:47;;;;;;;11.73;7.10;;;5.50;99.90;;;;;;5053672;28;20045;-67
2022/04/12 03:39:17;;;;;;;13.20;8.20;;;5.50;99.90;;;;;;5054424;28;20059;-67
2022/04/12 03:41:46;;;;;;;14.60;8.07;;;5.50;99.90;;;;;;5053748;28;20493;-67
2022/04/12 03:44:13;;;;;;;9.73;7.03;;;5.50;99.90;;;;;;5035978;28;20045;-67
2022/04/12 03:46:39;;;;;;;11.95;8.15;;;5.50;99.90;;;;;;5035455;28;20056;-67
2022/04/12 03:49:06;;;;;;;12.07;8.48;;;5.50;99.90;;;;;;5033922;28;20452;-68
2022/04/12 03:51:35;;;;;;;11.68;7.70;;;5.50;99.90;;;;;;5034479;28;20132;-67
2022/04/12 03:54:02;;;;;;;13.15;8.13;;;5.50;99.90;;;;;;5034339;28;20049;-68
2022/04/12 03:56:29;;;;;;;12.05;7.65;;;5.50;99.90;;;;;;5033809;28;20050;-67
2022/04/12 03:58:58;;;;;;;12.40;7.65;;;5.50;99.90;;;;;;5054303;28;20409;-67
2022/04/12 04:01:25;;;;;;;15.02;8.52;;;5.60;99.90;;;;;;5055163;28;20048;-67
2022/04/12 04:03:52;;;;;;;17.38;8.80;;;5.50;99.90;;;;;;5054598;28;20413;-67
2022/04/12 04:06:19;;;;;;;14.68;9.15;;;5.60;99.90;;;;;;5055184;28;20089;-67
2022/04/12 04:08:46;;;;;;;13.00;8.48;;;5.60;99.90;;;;;;5053990;28;20126;-67
2022/04/12 04:11:12;;;;;;;14.23;9.35;;;5.60;99.90;;;;;;5054404;28;20080;-67
2022/04/12 04:13:39;;;;;;;12.85;8.30;;;5.60;99.90;;;;;;5045675;28;20120;-70
2022/04/12 04:16:08;;;;;;;13.93;9.70;;;5.80;99.90;;;;;;5051097;28;20493;-70
2022/04/12 04:18:35;;;;;;;14.98;8.63;;;5.70;99.90;;;;;;5049028;28;20492;-70
2022/04/12 04:21:02;;;;;;;13.25;8.82;;;5.70;99.90;;;;;;5050011;28;20049;-70
2022/04/12 04:23:29;;;;;;;13.35;9.32;;;5.70;99.90;;;;;;5049321;28;20579;-70
2022/04/12 04:25:55;;;;;;;14.20;8.77;;;5.70;99.90;;;;;;5048528;28;20120;-69
2022/04/12 04:28:22;;;;;;;16.55;8.32;;;5.70;99.90;;;;;;5051278;28;20131;-70
2022/04/12 04:30:50;;;;;;;11.52;8.57;;;5.60;99.90;;;;;;5051018;28;20092;-70
2022/04/12 04:33:19;;;;;;;13.55;8.73;;;5.60;99.90;;;;;;5052364;28;20056;-70
2022/04/12 04:35:47;;;;;;;15.75;9.13;;;5.70;99.90;;;;;;5051033;28;20131;-70
2022/04/12 04:38:14;;;;;;;10.93;8.60;;;5.60;99.90;;;;;;5050468;28;20425;-70
2022/04/12 04:40:41;;;;;;;13.68;8.98;;;5.60;99.90;;;;;;5052380;28;20445;-70
2022/04/12 04:43:08;;;;;;;12.77;8.98;;;5.80;99.90;;;;;;5052655;28;20107;-70
2022/04/12 04:45:35;;;;;;;13.95;8.80;;;5.70;99.90;;;;;;5051112;28;20131;-70
2022/04/12 04:48:04;;;;;;;13.95;9.05;;;5.70;99.90;;;;;;5052239;28;20111;-70
2022/04/12 04:50:34;;;;;;;13.07;9.13;;;5.60;99.90;;;;;;5051145;28;20041;-70
2022/04/12 04:53:03;;;;;;;11.73;8.23;;;5.60;99.90;;;;;;5051589;28;20053;-70
2022/04/12 04:55:30;;;;;;;12.57;7.70;;;5.60;99.90;;;;;;5051412;28;20045;-70
2022/04/12 04:57:58;;;;;;;10.52;7.97;;;5.50;99.90;;;;;;5052394;28;20053;-70
2022/04/12 05:00:29;;;;;;;11.38;8.52;;;6.00;99.90;;;;;;5051540;28;20477;-69
2022/04/12 05:02:57;;;;;;;;;;;5.80;99.90;;;;;;5052443;28;20485;-69
2022/04/12 05:05:23;;;;;;;12.02;7.50;;;6.90;99.90;;;;;;5052578;28;19964;-70
2022/04/12 05:07:54;;;;;;;15.38;8.18;;;6.40;99.90;;;;;;5052043;28;20096;-69
2022/04/12 05:10:23;;;;;;;12.80;8.88;;;6.20;99.90;;;;;;5052563;28;20405;-69
2022/04/12 05:12:50;;;;;;;15.60;8.13;;;6.00;99.90;;;;;;5051684;28;20095;-69
2022/04/12 05:15:17;;;;;;;13.95;7.95;;;5.90;99.90;;;;;;5051626;28;20080;-69
2022/04/12 05:17:50;;;;;;;13.30;7.30;;;5.80;99.90;;;;;;5051448;28;20185;-69
2022/04/12 05:20:17;;;;;;;12.48;7.78;;;6.00;99.90;;;;;;5050914;28;20053;-70
2022/04/12 05:22:44;;;;;;;10.07;7.22;;;5.90;99.90;;;;;;5051600;28;20045;-70
2022/04/12 05:25:12;;;;;;;11.35;7.15;;;5.90;99.90;;;;;;5051731;28;20073;-70
2022/04/12 05:27:39;;;;;;;12.18;8.05;;;5.90;99.90;;;;;;5050444;28;20114;-70
2022/04/12 05:30:08;;;;;;;11.80;7.35;;;6.00;99.90;;;;;;5050807;28;20140;-70
2022/04/12 05:32:35;;;;;;;10.05;7.55;;;6.00;99.90;;;;;;5050627;28;20060;-69
2022/04/12 05:35:02;;;;;;;15.23;7.60;;;6.10;99.90;;;;;;5049771;28;20076;-70
2022/04/12 05:37:31;;;;;;;12.95;7.28;;;6.20;99.90;;;;;;5049877;28;20841;-69
2022/04/12 05:39:57;;;;;;;12.07;7.68;;;6.40;99.90;;;;;;5049745;28;20106;-70
2022/04/12 05:42:26;;;;;;;13.65;8.10;;;6.50;99.90;;;;;;5049778;28;20069;-69
2022/04/12 05:44:53;;;;;;;12.40;8.02;;;6.60;99.90;;;;;;5037868;28;20049;-69
2022/04/12 05:47:19;;;;;;;13.38;7.95;;;6.80;99.90;;;;;;5040670;28;20056;-69
2022/04/12 05:49:46;;;;;;;15.48;8.23;;;6.90;99.90;;;;;;5038990;28;20465;-69
2022/04/12 05:52:13;;;;;;;11.82;7.57;;;7.10;99.90;;;;;;5039959;28;20048;-69
2022/04/12 05:54:40;;;;;;;12.25;7.30;;;7.20;99.90;;;;;;5039823;28;20713;-70
2022/04/12 05:57:07;;;;;;;15.02;7.90;;;7.30;99.90;;;;;;5045523;28;20049;-69
2022/04/12 05:59:35;;;;;;;12.18;7.68;;;7.40;99.90;;;;;;5045734;28;20488;-69
2022/04/12 06:02:01;;;;;;;19.67;7.45;;;7.40;99.90;;;;;;5046582;28;20169;-70
2022/04/12 06:04:28;;;;;;;16.60;7.68;;;7.40;99.90;;;;;;5047700;28;20130;-70
2022/04/12 06:06:55;;;;;;;13.13;7.43;;;7.30;99.90;;;;;;5049007;28;20402;-70
2022/04/12 06:09:22;;;;;;;12.65;8.48;;;7.40;99.90;;;;;;5044335;28;20136;-70
2022/04/12 06:11:49;;;;;;;10.93;7.53;;;7.40;99.90;;;;;;5048867;28;20083;-69
2022/04/12 06:14:15;;;;;;;16.67;8.05;;;7.50;99.90;;;;;;5047238;28;20135;-69
2022/04/12 06:16:43;;;;;;;17.17;7.07;;;7.50;99.90;;;;;;5047853;28;20167;-70
2022/04/12 06:19:10;;;;;;;17.00;7.60;;;7.70;99.90;;;;;;5048654;28;20080;-69
2022/04/12 06:21:37;;;;;;;15.23;8.43;;;7.70;99.90;;;;;;5049582;28;20563;-70
2022/04/12 06:24:05;;;;;;;13.10;8.05;;;7.70;99.90;;;;;;5048498;28;20045;-69
2022/04/12 06:26:32;;;;;;;11.07;8.00;;;7.80;99.90;;;;;;5049254;28;20531;-69
2022/04/12 06:28:58;;;;;;;13.20;8.27;;;7.90;99.90;;;;;;5048665;28;20052;-70
2022/04/12 06:31:25;;;;;;;13.90;8.63;;;8.00;99.90;;;;;;5049539;28;20045;-70
2022/04/12 06:33:53;;;;;;;13.18;7.30;;;8.10;99.90;;;;;;5049974;28;20065;-70
2022/04/12 06:36:20;;;;;;;12.77;8.32;;;8.20;99.90;;;;;;5034964;28;20050;-70
2022/04/12 06:38:47;;;;;;;14.20;8.50;;;8.30;99.90;;;;;;5030450;28;20054;-70
2022/04/12 06:41:14;;;;;;;11.10;7.70;;;8.50;99.90;;;;;;5034836;28;20052;-70
2022/04/12 06:43:41;;;;;;;12.50;6.85;;;8.50;99.90;;;;;;5053533;28;20398;-70
2022/04/12 06:46:08;;;;;;;11.98;7.65;;;9.30;99.90;;;;;;5054921;28;20052;-70
2022/04/12 06:48:34;;;;;;;9.80;7.22;;;9.90;99.90;;;;;;5052584;28;20545;-71
2022/04/12 06:51:03;;;;;;;10.98;8.15;;;9.60;99.90;;;;;;5053797;28;20084;-70
2022/04/12 06:53:29;;;;;;;10.93;7.72;;;9.30;99.90;;;;;;5049683;28;20055;-70
2022/04/12 06:55:56;;;;;;;12.70;7.65;;;9.30;99.90;;;;;;5054130;28;20102;-70
2022/04/12 06:58:23;;;;;;;13.25;7.35;;;9.20;99.90;;;;;;5053017;28;20057;-70
2022/04/12 07:00:50;;;;;;;13.40;7.85;;;9.10;99.90;;;;;;5045259;28;20096;-71
2022/04/12 07:03:17;;;;;;;10.95;7.45;;;9.10;99.90;;;;;;5050754;28;20111;-69
2022/04/12 07:05:45;;;;;;;13.38;7.50;;;9.10;99.90;;;;;;5053519;28;20472;-70
2022/04/12 07:08:13;;;;;;;10.45;7.20;;;9.10;99.90;;;;;;5035652;28;20045;-71
2022/04/12 07:10:42;;;;;;;10.52;7.40;;;9.20;99.90;;;;;;5034138;28;20062;-71
2022/04/12 07:13:09;;;;;;;13.27;7.60;;;9.30;99.90;;;;;;5033700;28;20060;-71
2022/04/12 07:15:35;;;;;;;13.18;7.43;;;9.40;99.90;;;;;;5049111;28;20110;-70
2022/04/12 07:18:02;;;;;;;13.13;7.82;;;9.50;99.90;;;;;;5050471;28;20087;-70
2022/04/12 07:20:29;;;;;;;11.73;7.53;;;9.70;99.90;;;;;;5053464;28;20123;-71
2022/04/12 07:22:56;;;;;;;13.43;8.15;;;9.90;99.90;;;;;;5036377;28;20058;-71
2022/04/12 07:25:24;;;;;;;11.68;7.47;;;10.40;99.90;;;;;;5054697;28;20080;-71
2022/04/12 07:27:51;;;;;;;11.70;7.35;;;11.00;99.90;;;;;;5051947;28;20080;-71
2022/04/12 07:30:18;;;;;;;13.05;7.55;;;11.80;99.90;;;;;;5054329;28;20060;-72
2022/04/12 07:32:45;;;;;;;13.85;7.57;;;12.60;99.90;;;;;;5051622;28;20127;-72
2022/04/12 07:35:11;;;;;;;11.88;7.55;;;13.30;99.90;;;;;;5044329;28;20111;-73
2022/04/12 07:37:42;;;;;;;10.15;7.40;;;13.80;99.90;;;;;;5037968;28;20456;-72
2022/04/12 07:40:10;;;;;;;12.23;6.97;;;14.30;99.90;;;;;;5035862;28;20083;-72
2022/04/12 07:42:38;;;;;;;9.00;6.90;;;14.80;99.90;;;;;;5045582;28;20501;-72
2022/04/12 07:45:06;;;;;;;11.02;7.30;;;15.30;99.30;;;;;;5053067;28;20106;-72
2022/04/12 07:47:35;;;;;;;12.52;7.90;;;15.90;98.70;;;;;;5052353;28;20497;-71
2022/04/12 07:50:03;;;;;;;11.48;7.38;;;16.40;96.80;;;;;;5052239;28;20053;-73
2022/04/12 07:52:29;;;;;;;8.32;6.55;;;16.80;94.80;;;;;;5045636;28;20208;-72
2022/04/12 07:54:56;;;;;;;13.80;8.52;;;17.10;94.80;;;;;;5035269;28;20080;-73
2022/04/12 07:57:23;;;;;;;9.85;7.10;;;17.30;93.90;;;;;;5046117;28;20523;-73
2022/04/12 07:59:51;;;;;;;10.65;7.40;;;17.50;93.20;;;;;;5052693;28;20057;-73
2022/04/12 08:02:18;;;;;;;9.35;6.65;;;18.00;91.90;;;;;;5051024;28;20612;-73
2022/04/12 08:04:45;;;;;;;10.27;7.50;;;18.30;91.80;;;;;;5052700;28;20110;-73
2022/04/12 08:07:12;;;;;;;9.75;6.75;;;18.50;86.80;;;;;;5052094;28;20458;-73
2022/04/12 08:09:39;;;;;;;9.82;6.60;;;18.70;90.10;;;;;;5037142;28;20080;-71
2022/04/12 08:12:07;;;;;;;9.82;6.70;;;18.80;89.10;;;;;;5052048;28;20051;-74
2022/04/12 08:14:33;;;;;;;9.52;6.70;;;18.40;87.40;;;;;;5052476;28;20480;-74
2022/04/12 08:17:02;;;;;;;9.10;6.65;;;17.90;85.00;;;;;;5051307;28;20095;-73
2022/04/12 08:19:29;;;;;;;8.80;7.07;;;18.30;86.30;;;;;;5051911;28;20144;-73
2022/04/12 08:21:55;;;;;;;8.70;6.63;;;19.00;86.30;;;;;;5051449;28;20504;-74
2022/04/12 08:24:22;;;;;;;10.93;6.47;;;18.80;83.10;;;;;;5031661;28;20053;-74
2022/04/12 08:26:49;;;;;;;12.00;7.22;;;19.40;83.30;;;;;;5033383;28;20501;-71
2022/04/12 08:29:16;;;;;;;8.77;6.43;;;19.90;82.30;;;;;;5045173;28;20440;-71
2022/04/12 08:31:44;;;;;;;8.90;6.82;;;19.90;80.80;;;;;;5051705;28;20045;-74
2022/04/12 08:34:13;;;;;;;9.57;6.55;;;20.40;81.10;;;;;;5052942;28;20111;-74
2022/04/12 08:36:39;;;;;;;8.63;6.70;;;20.80;78.80;;;;;;5051508;28;20511;-74
2022/04/12 08:39:06;;;;;;;10.25;8.02;;;21.00;77.40;;;;;;5049917;28;20053;-71
2022/04/12 08:41:35;;;;;;;9.30;6.20;;;21.00;75.60;;;;;;5050474;28;20560;-71
2022/04/12 08:44:02;;;;;;;7.03;6.25;;;20.90;76.40;;;;;;5046577;28;20140;-72
2022/04/12 08:46:29;;;;;;;8.20;6.30;;;20.60;73.80;;;;;;5040570;28;20088;-71
2022/04/12 08:48:57;;;;;;;8.98;6.43;;;20.30;76.30;;;;;;5052144;28;20045;-72
2022/04/12 08:51:27;;;;;;;8.48;6.43;;;19.60;75.70;;;;;;5046189;28;20053;-72
2022/04/12 08:53:56;;;;;;;9.85;6.20;;;19.30;75.80;;;;;;5047505;28;20125;-72
2022/04/12 08:56:23;;;;;;;11.82;6.95;;;19.40;74.90;;;;;;5031691;28;20095;-72
2022/04/12 08:58:50;;;;;;;11.80;7.32;;;19.40;75.60;;;;;;5031669;28;20085;-72
2022/04/12 09:01:17;;;;;;;11.57;7.45;;;19.50;76.30;;;;;;5032915;28;20081;-72
2022/04/12 09:03:46;;;;;;;9.18;6.97;;;19.70;75.30;;;;;;5042348;28;20041;-72
2022/04/12 09:06:14;;;;;;;10.60;7.15;;;19.60;73.50;;;;;;5049465;28;20056;-72
2022/04/12 09:08:42;;;;;;;8.07;6.75;;;19.80;76.10;;;;;;5034312;28;20374;-72
2022/04/12 09:11:09;;;;;;;10.77;6.75;;;20.20;74.80;;;;;;5039250;28;20565;-72
2022/04/12 09:13:36;;;;;;;12.77;6.93;;;20.00;75.00;;;;;;5051938;28;20428;-72
2022/04/12 09:16:09;;;;;;;9.65;6.78;;;20.20;74.70;;;;;;5042654;28;20049;-72
2022/04/12 09:18:38;;;;;;;9.38;6.78;;;20.60;73.40;;;;;;5053360;28;20136;-72
2022/04/12 09:21:16;;;;;;;10.65;6.20;;;20.10;73.50;;;;;;5048747;28;20099;-72
2022/04/12 09:23:45;;;;;;;11.88;7.22;;;20.50;74.20;;;;;;5052265;28;20478;-72
2022/04/12 09:26:17;;;;;;;9.60;6.80;;;20.80;73.20;;;;;;5051121;28;20469;-72
2022/04/12 09:28:44;;;;;;;9.40;6.38;;;21.00;71.70;;;;;;5038365;28;20057;-72
2022/04/12 09:31:12;;;;;;;9.13;6.70;;;21.60;72.70;;;;;;5044013;28;20147;-72
2022/04/12 09:33:40;;;;;;;9.55;6.78;;;21.70;70.50;;;;;;5051573;28;20100;-73
2022/04/12 09:36:07;;;;;;;10.95;6.80;;;22.10;70.80;;;;;;5052273;28;20048;-72
2022/04/12 09:38:36;;;;;;;8.98;7.25;;;22.20;69.90;;;;;;5051501;28;20150;-72
2022/04/12 09:41:19;;;;;;;8.65;7.13;;;22.50;70.00;;;;;;5051459;28;20159;-71
2022/04/12 09:43:53;;;;;;;9.90;6.72;;;22.70;67.90;;;;;;5052119;28;20124;-72
2022/04/12 09:46:21;;;;;;;8.65;6.50;;;23.00;66.70;;;;;;5043218;28;20053;-72
2022/04/12 09:48:48;;;;;;;9.00;6.50;;;23.10;67.90;;;;;;5042024;28;20124;-73
2022/04/12 09:51:15;;;;;;;8.57;6.63;;;23.30;66.90;;;;;;5032840;28;20089;-73
2022/04/12 09:53:45;;;;;;;8.95;6.90;;;23.40;66.30;;;;;;5048173;28;20076;-72
2022/04/12 09:56:17;;;;;;;8.52;7.22;;;23.20;65.70;;;;;;5051222;28;20052;-73
2022/04/12 09:58:46;;;;;;;9.40;6.97;;;23.00;64.50;;;;;;5050244;28;20149;-72
2022/04/12 10:01:15;;;;;;;8.80;7.43;;;23.10;66.00;;;;;;5046128;28;20052;-72
2022/04/12 10:03:46;;;;;;;10.07;6.72;;;23.30;66.30;;;;;;5048942;28;20119;-74
2022/04/12 10:06:17;;;;;;;10.20;6.75;;;23.40;65.70;;;;;;5042529;28;20049;-72
2022/04/12 10:08:45;;;;;;;8.88;6.97;;;23.30;66.20;;;;;;5062060;28;20056;-73
2022/04/12 10:11:14;;;;;;;9.35;6.97;;;23.10;66.10;;;;;;5044518;28;20131;-73
2022/04/12 10:13:43;;;;;;;11.27;6.97;;;23.00;66.10;;;;;;5047078;28;20044;-72
2022/04/12 10:16:11;;;;;;;8.77;6.40;;;22.90;66.00;;;;;;5048211;28;20473;-72
2022/04/12 10:18:39;;;;;;;9.18;6.68;;;22.80;66.20;;;;;;5051737;28;20119;-72
2022/04/12 10:21:07;;;;;;;10.80;6.88;;;22.80;66.20;;;;;;5050009;28;20149;-72
2022/04/12 10:23:35;;;;;;;9.32;6.72;;;23.10;66.50;;;;;;5047571;28;20489;-73
2022/04/12 10:26:04;;;;;;;8.77;6.82;;;23.70;65.70;;;;;;5049217;28;20056;-72
2022/04/12 10:28:33;;;;;;;;;;;23.80;65.70;;;;;;5050182;28;20044;-73
2022/04/12 10:31:19;;;;;;;7.53;6.40;;;24.20;64.50;;;;;;5048067;28;19920;-73
2022/04/12 10:34:04;;;;;;;9.52;6.90;;;24.70;64.80;;;;;;5046823;28;20505;-73
2022/04/12 10:36:58;;;;;;;9.05;7.00;;;24.70;62.80;;;;;;5042388;28;20052;-73
2022/04/12 10:39:37;;;;;;;9.02;6.68;;;24.80;63.00;;;;;;5048708;28;20057;-73
2022/04/12 10:42:09;;;;;;;11.23;6.82;;;24.90;62.90;;;;;;5043837;28;20041;-72
2022/04/12 10:44:39;;;;;;;8.75;6.60;;;24.70;62.00;;;;;;5047079;28;20081;-73
2022/04/12 10:47:22;;;;;;;9.00;6.90;;;24.40;62.20;;;;;;5051056;28;20057;-73
2022/04/12 10:49:54;;;;;;;9.73;6.65;;;24.30;61.70;;;;;;5049760;28;20500;-73
2022/04/12 10:52:31;;;;;;;9.55;6.78;;;24.10;62.80;;;;;;5042641;28;20049;-73
2022/04/12 10:55:00;;;;;;;9.00;6.63;;;24.00;63.60;;;;;;5049821;28;20065;-73
2022/04/12 10:57:28;;;;;;;8.90;6.85;;;24.10;64.20;;;;;;5048650;28;20178;-73
2022/04/12 11:00:02;;;;;;;8.85;6.55;;;23.80;63.10;;;;;;5049024;28;20057;-73
2022/04/12 11:02:38;;;;;;;10.13;7.03;;;24.00;63.30;;;;;;5046468;28;20106;-73
2022/04/12 11:05:06;;;;;;;8.40;6.72;;;24.10;63.30;;;;;;5048689;28;20103;-73
2022/04/12 11:07:36;;;;;;;8.45;6.53;;;24.20;63.80;;;;;;5048531;28;20049;-73
2022/04/12 11:10:22;;;;;;;9.27;6.80;;;24.60;64.10;;;;;;5029486;28;20045;-73
2022/04/12 11:12:51;;;;;;;9.65;6.57;;;24.70;63.80;;;;;;5041760;28;20311;-74
2022/04/12 11:15:23;;;;;;;8.88;6.70;;;25.10;63.90;;;;;;5050858;28;20092;-73
2022/04/12 11:18:08;;;;;;;9.68;7.03;;;25.40;63.50;;;;;;5032825;28;20140;-73
2022/04/12 11:20:36;;;;;;;8.48;6.53;;;24.80;60.70;;;;;;5036516;28;20100;-73
2022/04/12 11:23:08;;;;;;;8.88;6.85;;;24.80;62.10;;;;;;5036332;28;20541;-73
2022/04/12 11:25:46;;;;;;;7.93;6.25;;;24.80;62.40;;;;;;5029732;28;20056;-73
2022/04/12 11:28:15;;;;;;;9.02;6.60;;;24.40;62.10;;;;;;5049215;28;20049;-73
2022/04/12 11:30:53;;;;;;;8.95;6.60;;;23.80;62.30;;;;;;5050806;28;20067;-73
2022/04/12 11:33:24;;;;;;;9.23;5.93;;;23.70;62.30;;;;;;5033517;28;20045;-73
2022/04/12 11:35:53;;;;;;;10.82;7.07;;;23.60;62.60;;;;;;5033279;28;20084;-73
2022/04/12 11:38:21;;;;;;;11.82;7.20;;;23.50;63.60;;;;;;5034237;28;20052;-73
2022/04/12 11:40:49;;;;;;;9.57;6.78;;;23.50;63.90;;;;;;5048403;28;20060;-73
2022/04/12 11:43:24;;;;;;;8.90;7.05;;;23.40;64.30;;;;;;5052368;28;20472;-73
2022/04/12 11:45:57;;;;;;;11.40;7.75;;;23.70;64.40;;;;;;5053509;28;20609;-71
2022/04/12 11:48:28;;;;;;;9.93;7.07;;;23.80;64.20;;;;;;5043578;28;20056;-73
2022/04/12 11:50:57;;;;;;;10.55;7.35;;;23.50;64.00;;;;;;5052980;28;20094;-72
2022/04/12 11:53:26;;;;;;;9.15;7.10;;;23.10;64.20;;;;;;5037583;28;20085;-72
2022/04/12 11:56:00;;;;;;;10.95;7.13;;;22.70;65.10;;;;;;5046835;28;20531;-72
2022/04/12 11:58:29;;;;;;;9.90;7.65;;;22.50;65.70;;;;;;5034654;28;20045;-72
2022/04/12 12:00:57;;;;;;;10.23;7.80;;;22.30;66.00;;;;;;5039467;28;20061;-72
2022/04/12 12:03:27;;;;;;;9.18;6.90;;;22.40;66.30;;;;;;5036473;28;20124;-72
2022/04/12 12:05:58;;;;;;;8.55;7.57;;;22.20;66.80;;;;;;5053769;28;20053;-72
2022/04/12 12:08:26;;;;;;;11.20;7.85;;;21.80;67.50;;;;;;5051697;28;20099;-72
2022/04/12 12:10:53;;;;;;;9.75;7.50;;;21.60;68.00;;;;;;5053680;28;20045;-72
2022/04/12 12:13:24;;;;;;;11.07;7.28;;;21.80;68.20;;;;;;5051555;28;20489;-72
2022/04/12 12:15:52;;;;;;;9.13;7.07;;;21.90;68.30;;;;;;5052329;28;20049;-72
2022/04/12 12:18:20;;;;;;;9.75;7.38;;;22.10;68.40;;;;;;5052477;28;20063;-72
2022/04/12 12:20:49;;;;;;;8.27;6.72;;;22.20;68.00;;;;;;5052670;28;20139;-72
2022/04/12 12:23:16;;;;;;;11.27;7.13;;;22.20;68.30;;;;;;5041032;28;20124;-73
2022/04/12 12:25:55;;;;;;;9.82;7.32;;;22.20;68.60;;;;;;5053231;28;20057;-72
2022/04/12 12:28:25;;;;;;;11.60;7.57;;;22.30;68.30;;;;;;5047741;28;20064;-72
2022/04/12 12:30:59;;;;;;;11.27;7.30;;;22.30;68.30;;;;;;5053176;28;20064;-72
2022/04/12 12:33:36;;;;;;;11.13;7.72;;;22.20;68.40;;;;;;5053348;28;20443;-72
2022/04/12 12:36:17;;;;;;;10.23;7.47;;;22.20;68.30;;;;;;5050966;28;20079;-72
2022/04/12 12:38:45;;;;;;;9.57;7.13;;;22.20;68.20;;;;;;5052796;28;20079;-72
2022/04/12 12:41:23;;;;;;;9.25;6.65;;;22.00;68.40;;;;;;5051572;28;20057;-72
2022/04/12 12:43:54;;;;;;;12.05;7.32;;;22.00;69.40;;;;;;5052733;28;20451;-72
2022/04/12 12:46:24;;;;;;;11.85;7.93;;;21.90;68.10;;;;;;5040376;28;20486;-72
2022/04/12 12:49:06;;;;;;;8.88;6.50;;;21.60;68.90;;;;;;5042390;28;20144;-72
2022/04/12 12:51:37;;;;;;;8.55;6.90;;;21.40;69.60;;;;;;5048537;28;20090;-72
2022/04/12 12:54:05;;;;;;;12.60;7.72;;;21.50;69.90;;;;;;5032592;28;20046;-72
2022/04/12 12:56:36;;;;;;;10.07;7.07;;;21.90;69.90;;;;;;5032623;28;20049;-72